SBMQ/MCP METAR and TAF weather

Enter ICAO airport designator
Station Type Date Time Source
SBMQ METAR 2019/02/17 15:00 UTC NOAA

SBMQ 171500Z 01009KT 9999 SCT020 BKN090 31/24 Q1014


Station Type Date Time Source
SBMQ Decoded METAR 2019/02/17 15:00 UTC NOAA

Macapa, Brazil (SBMQ) 00-02N 050-03W
Feb 17, 2019 - 10:00 AM EST / 2019.02.17 1500 UTC
Wind: from the N (010 degrees) at 10 MPH (9 KT):0
Visibility: greater than 7 mile(s):0
Sky conditions: mostly cloudy
Temperature: 87 F (31 C)
Heat index: 95.7 F (35.4 C):1
Dew Point: 75 F (24 C)
Relative Humidity: 66%
Pressure (altimeter): 29.94 in. Hg (1014 hPa)
ob: SBMQ 171500Z 01009KT 9999 SCT020 BKN090 31/24 Q1014
cycle: 15

Station Type Date Time Source
SBMQ TAF 2019/02/17 12:30 UTC NOAA

TAF SBMQ 171000Z 1712/1812 32003KT 9999 FEW010 TX31/1717Z TN24/1807Z
BECMG 1712/1714 01012KT SCT015
BECMG 1722/1724 05003KT SCT020 FEW025TCU RM K PCQ


Example: see airport list